Latest Weather Observations for Warra

IDT60801

Issued at 8:41 pm EDT Thursday 21 February 2019 (issued every 10 minutes, with the page automatically refreshed every 10 minutes)

About weather observations | Map of weather stations | Latest weather observations for TAS | Other Formats
Station Details ID: 097024 Name: WARRA Lat: -43.06 Lon: 146.70 Height: 495.0 m
Data from the previous 72 hours. | See also: Recent months at Warra
Date/Time
EDT
Temp
°C
App
Temp
°C
Dew
Point
°C
Rel
Hum
%
Delta-T
°C
Wind Press
QNH
hPa
Press
MSL
hPa
Rain since
9am
mm
Dir  Spd
km/h
Gust
km/h
Spd
kts
Gust
kts
21/08:30pm 10.2 7.2 7.6 84 1.3 WNW 13 28 7 15 - - -
21/08:00pm 10.1 6.9 8.4 89 0.9 W 15 24 8 13 - - -
21/07:30pm 10.6 6.9 7.8 83 1.4 WNW 17 35 9 19 - - -
21/07:00pm 11.0 8.0 7.9 81 1.5 WSW 13 24 7 13 - - -
21/06:30pm 11.2 7.4 7.7 79 1.7 W 17 35 9 19 - - -
21/06:00pm 10.8 8.3 8.0 83 1.4 WSW 11 20 6 11 - - -
21/05:30pm 11.4 8.0 7.7 78 1.8 WSW 15 32 8 17 - - -
21/05:00pm 11.3 8.0 8.0 80 1.7 W 15 33 8 18 - - -
21/04:30pm 11.5 8.2 8.2 80 1.7 WSW 15 24 8 13 - - -
21/04:00pm 11.2 7.5 7.9 80 1.6 WSW 17 37 9 20 - - -
21/03:30pm 11.3 7.8 8.9 85 1.2 WSW 17 33 9 18 - - -
21/03:00pm 10.5 7.3 10.0 97 0.3 WSW 17 50 9 27 - - -
21/02:30pm 11.2 8.6 9.3 88 1.0 WSW 13 32 7 17 - - -
21/02:00pm 11.7 8.7 10.8 94 0.5 WSW 17 37 9 20 - - -
21/01:30pm 10.9 7.9 9.3 90 0.8 WSW 15 30 8 16 - - -
21/01:00pm 10.5 7.4 10.2 98 0.2 WSW 17 41 9 22 - - -
21/12:30pm 11.4 6.6 8.8 84 1.3 W 24 43 13 23 - - -
21/12:00pm 12.2 8.4 8.9 80 1.7 WSW 19 41 10 22 - - -
21/11:30am 12.4 8.4 10.6 89 1.0 W 22 39 12 21 - - -
21/11:00am 10.6 6.9 10.0 96 0.3 W 20 39 11 21 - - -
21/10:32am 10.5 4.9 8.8 89 0.9 W 28 46 15 25 - - -
21/10:30am 10.8 6.2 9.7 93 0.6 W 24 46 13 25 - - -
21/10:18am 10.2 4.7 9.3 94 0.5 W 28 46 15 25 - - -
21/10:00am 10.4 5.5 8.3 87 1.1 WNW 24 50 13 27 - - -
21/09:30am 10.7 4.1 7.8 82 1.4 W 32 52 17 28 - - -
21/09:10am 10.2 4.4 8.1 87 1.0 W 28 59 15 32 - - -
21/09:00am 9.6 4.2 8.0 90 0.8 WNW 26 46 14 25 - - -
21/08:30am 9.8 3.1 7.4 85 1.2 W 32 54 17 29 - - -
21/08:12am 9.2 4.0 7.3 88 0.9 W 24 57 13 31 - - -
21/08:00am 8.8 5.3 7.1 89 0.8 W 15 32 8 17 - - -
21/07:30am 9.0 4.4 5.7 80 1.5 W 19 35 10 19 - - -
21/07:00am 8.8 4.1 6.1 83 1.3 WNW 20 37 11 20 - - -
21/06:30am 8.5 2.6 5.6 82 1.3 WNW 26 46 14 25 - - -
21/06:00am 8.3 3.0 5.1 80 1.5 WNW 22 41 12 22 - - -
21/05:00am 8.4 2.9 4.0 74 2.0 W 22 41 12 22 - - -
21/04:30am 7.9 3.5 4.7 80 1.5 WNW 17 30 9 16 - - -
21/04:00am 7.9 3.3 3.8 75 1.8 WNW 17 32 9 17 - - -
21/03:30am 7.8 2.8 3.5 74 1.9 W 19 41 10 22 - - -
21/03:00am 7.8 1.8 3.3 73 2.0 W 24 39 13 21 - - -
21/02:30am 7.7 1.9 4.3 79 1.5 W 24 44 13 24 - - -
21/02:13am 7.6 1.1 4.9 83 1.2 W 28 52 15 28 - - -
21/02:00am 7.5 2.2 5.0 84 1.1 W 22 48 12 26 - - -
21/01:30am 7.3 2.1 5.3 87 0.9 WNW 22 44 12 24 - - -
21/01:00am 7.5 2.6 4.1 79 1.5 W 19 33 10 18 - - -
21/12:30am 7.5 2.0 4.1 79 1.5 WNW 22 43 12 23 - - -
21/12:00am 7.5 1.8 5.0 84 1.1 W 24 44 13 24 - - -
 
Date/Time
EDT
Temp
°C
App
Temp
°C
Dew
Point
°C
Rel
Hum
%
Delta-T
°C
Wind Press
QNH
hPa
Press
MSL
hPa
Rain since
9am
mm
Dir  Spd
km/h
Gust
km/h
Spd
kts
Gust
kts
20/11:30pm 7.5 3.6 5.3 86 1.0 WNW 15 35 8 19 - - -
20/11:00pm 7.6 3.1 4.4 80 1.4 WNW 17 37 9 20 - - -
20/10:30pm 7.4 1.2 4.4 81 1.3 WNW 26 44 14 24 - - -
20/10:22pm 7.8 1.6 4.4 79 1.5 WNW 26 43 14 23 - - -
20/10:00pm 8.1 4.3 3.9 75 1.9 WNW 13 24 7 13 - - -
20/09:30pm 8.2 3.5 2.9 69 2.3 W 17 33 9 18 - - -
20/09:00pm 8.6 3.5 2.8 67 2.5 WNW 19 41 10 22 - - -
20/08:30pm 9.0 3.5 4.0 71 2.3 W 22 41 12 22 - - -
20/08:00pm 8.8 2.1 3.6 70 2.3 W 28 44 15 24 - - -
20/07:30pm 9.2 2.1 3.6 68 2.5 W 30 48 16 26 - - -
20/07:10pm 8.9 2.3 4.1 72 2.2 W 28 46 15 25 - - -
20/07:00pm 8.8 2.6 4.4 74 2.0 W 26 43 14 23 - - -
20/06:35pm 8.9 2.4 4.7 75 1.9 WNW 28 52 15 28 - - -
20/06:30pm 8.5 3.0 6.1 85 1.1 WNW 24 41 13 22 - - -
20/06:11pm 8.9 2.6 5.8 81 1.5 W 28 46 15 25 - - -
20/06:00pm 9.5 5.3 5.5 76 1.9 WNW 17 28 9 15 - - -
20/05:30pm 9.5 4.7 5.7 77 1.8 W 20 35 11 19 - - -
20/05:12pm 9.5 3.3 6.2 80 1.6 W 28 50 15 27 - - -
20/05:00pm 9.5 5.0 7.1 85 1.2 W 20 35 11 19 - - -
20/04:30pm 9.6 5.8 7.4 86 1.1 W 17 30 9 16 - - -
20/04:00pm 10.2 6.1 7.8 85 1.2 WSW 19 33 10 18 - - -
20/03:50pm 10.4 4.2 6.2 75 2.0 W 28 44 15 24 - - -
20/03:30pm 12.3 8.4 5.5 63 3.3 W 15 26 8 14 - - -
20/03:00pm 12.1 7.8 5.3 63 3.2 W 17 26 9 14 - - -
20/02:30pm 12.3 7.1 7.2 71 2.5 W 24 37 13 20 - - -
20/02:10pm 11.6 5.4 6.3 70 2.6 W 28 59 15 32 - - -
20/02:00pm 11.9 7.2 7.6 75 2.1 W 22 41 12 22 - - -
20/01:30pm 12.0 7.3 7.7 75 2.2 WNW 22 46 12 25 - - -
20/01:00pm 11.3 7.9 10.4 94 0.5 W 19 32 10 17 - - -
20/12:30pm 10.8 8.2 10.6 99 0.1 W 15 28 8 15 - - -
20/12:00pm 10.6 7.0 9.8 95 0.4 W 19 30 10 16 - - -
20/11:30am 10.6 7.0 10.6 100 0.0 W 20 35 11 19 - - -
20/11:00am 11.0 8.7 10.5 97 0.3 W 13 20 7 11 - - -
20/10:30am 11.8 7.0 8.8 82 1.5 WNW 24 44 13 24 - - -
20/10:01am 11.4 6.1 9.7 89 0.9 WNW 28 54 15 29 - - -
20/10:00am 11.4 6.5 10.0 91 0.7 WNW 26 41 14 22 - - -
20/09:30am 11.9 6.4 9.3 84 1.3 WNW 28 48 15 26 - - -
20/09:17am 12.0 5.4 8.7 80 1.7 WNW 33 67 18 36 - - -
20/09:08am 11.7 5.8 8.9 83 1.4 WNW 30 48 16 26 - - -
20/09:00am 11.1 6.8 9.5 90 0.8 WNW 22 35 12 19 - - -
20/08:30am 10.8 7.5 8.0 83 1.4 NW 15 26 8 14 - - -
20/08:00am 10.4 6.3 8.0 85 1.2 WNW 19 39 10 21 - - -
20/07:30am 10.1 7.5 7.9 86 1.1 W 11 17 6 9 - - -
20/07:00am 9.5 7.8 7.6 88 0.9 ESE 6 9 3 5 - - -
20/06:30am 9.2 7.3 6.8 85 1.2 N 6 11 3 6 - - -
20/06:00am 9.3 6.8 6.7 84 1.2 NNW 9 17 5 9 - - -
20/05:30am 9.2 6.7 6.5 83 1.3 NNW 9 15 5 8 - - -
20/05:00am 9.3 4.8 6.2 81 1.5 NNW 19 26 10 14 - - -
20/04:30am 9.3 5.1 5.7 78 1.7 NW 17 26 9 14 - - -
20/04:00am 9.5 6.7 5.1 74 2.0 NW 9 24 5 13 - - -
20/03:30am 9.3 5.5 6.0 80 1.6 NW 15 28 8 15 - - -
20/03:00am 8.9 5.4 5.6 80 1.5 WNW 13 20 7 11 - - -
20/02:30am 8.6 5.7 4.8 77 1.7 NW 9 17 5 9 - - -
20/02:00am 9.1 5.8 4.3 72 2.2 WNW 11 24 6 13 - - -
20/01:30am 9.3 4.9 4.5 72 2.2 WNW 17 32 9 17 - - -
20/01:00am 8.7 6.3 5.1 78 1.7 NNW 7 13 4 7 - - -
20/12:30am 8.9 5.3 5.1 77 1.8 NW 13 20 7 11 - - -
20/12:00am 8.9 4.7 5.6 80 1.5 NW 17 22 9 12 - - -
 
Date/Time
EDT
Temp
°C
App
Temp
°C
Dew
Point
°C
Rel
Hum
%
Delta-T
°C
Wind Press
QNH
hPa
Press
MSL
hPa
Rain since
9am
mm
Dir  Spd
km/h
Gust
km/h
Spd
kts
Gust
kts
19/11:30pm 8.9 5.9 6.2 83 1.3 NW 11 19 6 10 - - -
19/11:00pm 9.0 5.8 6.8 86 1.1 WNW 13 17 7 9 - - -
19/10:30pm 9.2 6.4 6.8 85 1.2 NW 11 17 6 9 - - -
19/10:00pm 9.5 6.9 6.2 80 1.6 WNW 9 13 5 7 - - -
19/09:30pm 9.9 5.3 5.7 75 2.0 WNW 19 32 10 17 - - -
19/09:00pm 9.8 4.6 5.6 75 2.0 WNW 22 39 12 21 - - -
19/08:30pm 9.8 5.1 6.0 77 1.8 WNW 20 35 11 19 - - -
19/08:00pm 9.9 5.4 6.1 77 1.8 W 19 33 10 18 - - -
19/07:30pm 10.2 5.6 5.4 72 2.3 WNW 19 33 10 18 - - -
19/07:00pm 10.2 5.1 6.2 76 1.9 WNW 22 43 12 23 - - -
19/06:30pm 10.4 5.9 7.1 80 1.6 WNW 20 33 11 18 - - -
19/06:00pm 10.1 7.1 7.9 86 1.1 WNW 13 26 7 14 - - -
19/05:30pm 11.0 7.2 7.5 79 1.7 WNW 17 30 9 16 - - -
19/05:00pm 10.2 5.8 6.7 79 1.7 W 19 32 10 17 - - -
19/04:30pm 10.1 6.9 8.4 89 0.9 WNW 15 22 8 12 - - -
19/04:00pm 10.6 7.0 8.2 85 1.2 WNW 17 35 9 19 - - -
19/03:30pm 9.9 7.5 8.7 92 0.6 WNW 11 32 6 17 - - -
19/03:00pm 9.2 5.8 9.1 99 0.1 WSW 17 37 9 20 - - -
19/02:30pm 10.5 7.0 7.0 79 1.7 WNW 15 24 8 13 - - -
19/02:00pm 11.2 8.8 6.9 75 2.1 W 9 20 5 11 - - -
19/01:30pm 10.4 6.7 6.4 76 1.9 WNW 15 32 8 17 - - -
19/01:00pm 9.5 5.0 6.8 83 1.3 WNW 20 37 11 20 - - -
19/12:30pm 10.4 6.3 6.2 75 2.0 WNW 17 33 9 18 - - -
19/12:00pm 10.0 5.9 6.0 76 1.9 WNW 17 30 9 16 - - -
19/11:30am 9.3 5.3 6.6 83 1.3 WNW 17 35 9 19 - - -
19/11:00am 8.6 3.3 6.6 87 1.0 W 24 44 13 24 - - -
19/10:30am 8.2 3.4 7.4 95 0.4 W 22 46 12 25 - - -
19/10:00am 8.7 4.1 5.6 81 1.4 WNW 19 32 10 17 - - -
19/09:30am 8.1 3.6 6.2 88 0.9 WNW 19 39 10 21 - - -
19/09:07am 8.6 2.0 4.4 75 1.9 WNW 28 52 15 28 - - -
19/09:00am 8.7 3.4 4.9 77 1.7 WNW 22 50 12 27 - - -
19/08:30am 8.1 2.5 5.4 83 1.2 WNW 24 35 13 19 - - -
19/08:00am 8.9 1.9 4.1 72 2.2 WNW 30 57 16 31 - - -
19/07:30am 8.2 0.9 4.4 77 1.7 WNW 32 52 17 28 - - -
19/07:00am 7.9 0.1 5.0 82 1.3 WNW 35 70 19 38 - - -
19/06:53am 8.0 0.3 5.3 83 1.2 WNW 35 70 19 38 - - -
19/06:30am 7.5 1.2 5.5 87 0.9 WNW 28 48 15 26 - - -
19/06:00am 8.2 0.2 3.7 73 2.0 WNW 35 57 19 31 - - -
19/05:30am 8.2 0.1 3.1 70 2.2 W 35 63 19 34 - - -
19/05:00am 7.9 0.2 3.4 73 2.0 W 33 69 18 37 - - -
19/04:30am 7.7 0.1 3.7 76 1.8 W 33 67 18 36 - - -
19/04:00am 8.0 0.1 2.5 68 2.4 W 33 59 18 32 - - -
19/03:30am 7.4 -1.1 3.3 75 1.8 W 37 72 20 39 - - -
19/03:28am 7.4 -1.1 3.3 75 1.8 W 37 72 20 39 - - -
19/03:00am 8.1 1.3 3.2 71 2.1 W 28 50 15 27 - - -
19/02:38am 8.1 0.6 3.4 72 2.1 W 32 54 17 29 - - -
19/02:30am 8.1 3.0 3.9 75 1.9 W 20 44 11 24 - - -
19/02:00am 8.3 3.1 3.6 72 2.1 WNW 20 37 11 20 - - -
19/01:30am 8.2 0.7 3.7 73 2.0 W 32 57 17 31 - - -
19/01:00am 8.4 1.0 3.8 73 2.1 WNW 32 52 17 28 - - -
19/12:30am 8.1 0.5 3.8 74 1.9 WNW 33 59 18 32 - - -
19/12:00am 8.1 0.7 4.1 76 1.8 WNW 32 54 17 29 - - -
 
Date/Time
EDT
Temp
°C
App
Temp
°C
Dew
Point
°C
Rel
Hum
%
Delta-T
°C
Wind Press
QNH
hPa
Press
MSL
hPa
Rain since
9am
mm
Dir  Spd
km/h
Gust
km/h
Spd
kts
Gust
kts
18/11:30pm 8.0 0.5 3.3 72 2.1 WNW 32 50 17 27 - - -
18/11:00pm 7.9 0.4 4.7 80 1.5 WNW 33 56 18 30 - - -
18/10:31pm 8.1 1.5 4.1 76 1.8 WNW 28 50 15 27 - - -
18/10:30pm 8.0 1.4 4.0 76 1.8 WNW 28 44 15 24 - - -
18/10:05pm 8.2 1.6 4.0 75 1.9 WNW 28 57 15 31 - - -
18/10:00pm 7.9 2.1 4.5 79 1.5 WNW 24 39 13 21 - - -
18/09:30pm 8.3 3.5 4.9 79 1.6 W 19 43 10 23 - - -
18/09:03pm 8.7 2.0 3.9 72 2.2 WNW 28 46 15 25 - - -
18/09:00pm 8.7 2.5 4.1 73 2.1 WNW 26 46 14 25 - - -

Other formats

Comma delimited format used in spreadsheet applications
http://www.bom.gov.au/fwo/IDT60801/IDT60801.95962.axf

JavaScript Object Notation format (JSON) in row-major order
http://www.bom.gov.au/fwo/IDT60801/IDT60801.95962.json

Data quality

Most of these data are generated automatically and are frequently updated. Quality checks on data are not normally performed. It is possible for incorrect values to appear. Refer to information at About Latest Weather Observations and please check the disclaimer before using these data.